Ana Sayfa
METAR-TAF:

METAR-TAF

Havaalanları :

Gladstone, Avustralya

Enlem: 23-52-11S, Boylam: 151-13-22E, yükseklik: 18 m

Güncel hava durumu gözlemi

Rapor saat 00:00 UTC de 23 dakika önce yapıldı.
Rüzgar doğudan 13 kt
Sıcaklık 29°C
Nem 52%
Basınç 1019 hPa
Görüş mesafesi 10 km veya daha fazla
3500 ft yükseklikte parçalı çok bulutlu

METAR: YGLA 090000Z AUTO 10013KT 9999 // BKN035 29/18 Q1019

Saat: 10:23 (00:23 UTC)

Tahmin

Rapor saat 23:24 UTC de 59 dakika önce yapıldı.
Ayın 09'si saat 00 UTC'den ayın 09'si saat 12 UTC'ye kadar geçerli Tahmin
Rüzgar doğudan 14 kt
Görüş mesafesi 10 km veya daha fazla
1500 m altında bulut yok ve kümülonimbus yok
Ayın 09'si saat 0900 UTC'den
Rüzgar doğudan 7 kt
Görüş mesafesi 10 km veya daha fazla
2200 ft yükseklikte parçalı bulutlu

TAF: YGLA 082324Z 0900/0912 08014KT CAVOK FM090900 10007KT 9999 SCT022

4.000'den fazla havaalanı için hava durumu gözlemleri ve tahminleri (METAR ve TAF raporları).

Kullanılabilir istasyonlar harita üzerinde sarı ve kırmızı noktalarla gösterilir.

İstasyonun adını görmek için fareyi noktanın üzerinde gezdirin.

Sonrasında hava gözlem ve tahminlerini görmek için tıklayın.

Haritayı değiştirmek için: yaklaştırmak için siyah artı işaretli yeşil düğmeye ve uzaklaştırmak için de eksi işaretli düğmeye hızla tıklayın; bitişik haritalar için yeşil okları kullanın.


METAR-TAF: